»·PEaware :: N723GA KBOI-KSUN

N723GA :: KBOI-KSUN

FLIGHT INFORMATION

Flight Status: Arrived
Operator: Privately registered:
United States
More flights under this callsign
Pilot: Jose A. (17505)
Aircraft: BEECH AIRCRAFT BARON
(BE58)
More flights by this aircraft type
Origin: KBOI Boise Air Terminal/Gowen
United States
Destination: KSUN Friedman Meml
United States
More flights between these airports :: More routes between these airports
Route: +BOI3 BOI V444 SOLDE V101 HLE
File this flight plan on PilotEdge
Remarks:
Altitude:
(Current/Filed)
11,000ft
Speed:
(Current/Filed)
150kts
Departed: 11-Apr-18 05:52 PM
Arrived: 11-Apr-18 06:32 PM
Distance/Time
Traveled:
84nm/0:40
Distance/Time
To Go:
Arrived

Flight Plot

Page will automatically refresh every two minutes.

Flight plan parsing failed; only flown route is shown


Map Options




Map Legend


Flown Route
Filed Route
Departure Airport
Arrival Airport
Navaid (VOR, NDB)
Fix

Horizontal Profiles

Position Reports

Time Latitude Longitude Heading Altitude Ground
Speed
11-Apr-18 17:18 43.564090 -116.240303 355 2815ft 0kts
11-Apr-18 17:19 43.564090 -116.240303 355 2815ft 0kts
11-Apr-18 17:20 43.564090 -116.240303 355 2815ft 0kts
11-Apr-18 17:21 43.564090 -116.240303 355 2815ft 0kts
11-Apr-18 17:22 43.564090 -116.240303 355 2815ft 0kts
11-Apr-18 17:23 43.564090 -116.240303 355 2815ft 0kts
11-Apr-18 17:24 43.564090 -116.240303 355 2815ft 0kts
11-Apr-18 17:25 43.564090 -116.240303 355 2815ft 0kts
11-Apr-18 17:26 43.564090 -116.240303 355 2815ft 0kts
11-Apr-18 17:27 43.564090 -116.240303 355 2815ft 0kts
11-Apr-18 17:28 43.564090 -116.240303 355 2815ft 0kts
11-Apr-18 17:29 43.564090 -116.240303 355 2815ft 0kts
11-Apr-18 17:30 43.564090 -116.240303 355 2815ft 0kts
11-Apr-18 17:31 43.564090 -116.240303 355 2815ft 0kts
11-Apr-18 17:32 43.564090 -116.240303 355 2815ft 0kts
11-Apr-18 17:33 43.564090 -116.240303 355 2815ft 0kts
11-Apr-18 17:34 43.564090 -116.240303 355 2815ft 0kts
11-Apr-18 17:35 43.564090 -116.240303 355 2815ft 0kts
11-Apr-18 17:36 43.564090 -116.240303 355 2815ft 0kts
11-Apr-18 17:37 43.564090 -116.240303 355 2815ft 0kts
11-Apr-18 17:38 43.564090 -116.240303 355 2815ft 0kts
11-Apr-18 17:39 43.564090 -116.240303 355 2815ft 0kts
11-Apr-18 17:40 43.564090 -116.240303 355 2815ft 0kts
11-Apr-18 17:41 43.564090 -116.240303 355 2815ft 0kts
11-Apr-18 17:42 43.564090 -116.240303 355 2815ft 0kts
11-Apr-18 17:43 43.564090 -116.240303 355 2815ft 0kts
11-Apr-18 17:44 43.564227 -116.241060 260 2814ft 10kts
11-Apr-18 17:45 43.566032 -116.242315 354 2813ft 12kts
11-Apr-18 17:46 43.568962 -116.242307 68 2812ft 0kts
11-Apr-18 17:47 43.568961 -116.242308 68 2812ft 0kts
11-Apr-18 17:48 43.568961 -116.242308 68 2812ft 0kts
11-Apr-18 17:49 43.568961 -116.242308 68 2812ft 0kts
11-Apr-18 17:50 43.569865 -116.242064 92 2813ft 12kts
11-Apr-18 17:51 43.559237 -116.210362 118 3445ft 115kts
11-Apr-18 17:52 43.546439 -116.170423 117 4350ft 129kts
11-Apr-18 17:53 43.531571 -116.125458 114 5479ft 131kts
11-Apr-18 17:54 43.516862 -116.079084 115 6478ft 136kts
11-Apr-18 17:55 43.515102 -116.026870 85 7405ft 142kts
11-Apr-18 17:56 43.518158 -115.971987 98 8239ft 146kts
11-Apr-18 17:57 43.512203 -115.915952 102 9051ft 142kts
11-Apr-18 17:58 43.505029 -115.863505 103 9901ft 140kts
11-Apr-18 17:59 43.496119 -115.810125 105 10525ft 146kts
11-Apr-18 18:00 43.485720 -115.754892 107 11000ft 155kts
11-Apr-18 18:01 43.474676 -115.692527 104 11009ft 176kts
11-Apr-18 18:02 43.464962 -115.624769 102 11006ft 182kts
11-Apr-18 18:03 43.455582 -115.556454 102 11006ft 181kts
11-Apr-18 18:04 43.446180 -115.487918 102 10904ft 185kts
11-Apr-18 18:05 43.436704 -115.418813 102 10895ft 182kts
11-Apr-18 18:06 43.427486 -115.351292 103 10997ft 179kts
11-Apr-18 18:07 43.418953 -115.285067 107 10976ft 181kts
11-Apr-18 18:08 43.406695 -115.218171 111 10977ft 180kts
11-Apr-18 18:09 43.388493 -115.154241 115 10977ft 181kts
11-Apr-18 18:10 43.371551 -115.088864 107 10977ft 182kts
11-Apr-18 18:11 43.348494 -115.027074 120 10977ft 182kts
11-Apr-18 18:12 43.328206 -114.963924 100 10978ft 182kts
11-Apr-18 18:13 43.317290 -114.895961 103 10977ft 183kts
11-Apr-18 18:14 43.304661 -114.828152 104 10977ft 184kts
11-Apr-18 18:15 43.291784 -114.760042 104 10977ft 184kts
11-Apr-18 18:16 43.278876 -114.692019 104 10977ft 185kts
11-Apr-18 18:17 43.265826 -114.623484 104 10977ft 185kts
11-Apr-18 18:18 43.273446 -114.558412 46 10980ft 184kts
11-Apr-18 18:19 43.288120 -114.495223 113 10642ft 198kts
11-Apr-18 18:20 43.256985 -114.432839 120 10375ft 194kts
11-Apr-18 18:21 43.230188 -114.370348 119 10376ft 187kts
11-Apr-18 18:22 43.223516 -114.305478 60 10155ft 198kts
11-Apr-18 18:23 43.263035 -114.255760 37 8971ft 194kts
11-Apr-18 18:24 43.304060 -114.212542 37 8571ft 172kts
11-Apr-18 18:25 43.343855 -114.185135 352 8264ft 160kts
11-Apr-18 18:26 43.382965 -114.207776 333 7407ft 145kts
11-Apr-18 18:27 43.417786 -114.231812 333 7249ft 147kts
11-Apr-18 18:28 43.450666 -114.251902 346 6258ft 124kts
11-Apr-18 18:29 43.479055 -114.271602 325 5636ft 109kts
11-Apr-18 18:30 43.498569 -114.290520 325 5268ft 85kts
11-Apr-18 18:31 43.505374 -114.298629 319 5293ft 0kts
11-Apr-18 18:32 43.508035 -114.301162 324 5304ft 20kts
11-Apr-18 18:33 43.508309 -114.303346 174 5307ft 8kts

Navigation Log

Ident Type
Flight plan parsing failed, navigation log unavailable